Time;durP1;ratioP1;P1;durP2;ratioP2;P2;SDS_P1;SDS_P2;PMS_P1;PMS_P2;Temp;Humidity;BMP_temperature;BMP_pressure;BME280_temperature;BME280_humidity;BME280_pressure;Samples;Min_cycle;Max_cycle;Signal;HPM_P1;HPM_P2
2023/01/05 00:01:07;;;;;;;9.07;2.75;;;21.40;43.80;;;;;;5032837;28;20039;-55
2023/01/05 00:03:33;;;;;;;;;;;21.30;43.70;;;;;;5017306;28;20030;-54
2023/01/05 00:06:09;;;;;;;9.95;3.40;;;21.30;43.70;;;;;;5017935;28;19964;-53
2023/01/05 00:08:35;;;;;;;6.38;2.33;;;21.30;43.70;;;;;;5027543;28;20105;-52
2023/01/05 00:22:33;;;;;;;10.57;2.92;;;21.30;43.80;;;;;;5026574;28;20034;-55
2023/01/05 00:25:08;;;;;;;8.52;2.80;;;21.30;43.80;;;;;;5037629;28;20095;-52
2023/01/05 00:27:35;;;;;;;9.80;2.90;;;21.20;43.80;;;;;;5024441;28;20108;-55
2023/01/05 00:30:01;;;;;;;6.43;2.50;;;21.20;43.80;;;;;;5019430;28;20068;-56
2023/01/05 00:32:27;;;;;;;12.48;3.42;;;21.20;43.80;;;;;;5025470;28;20064;-55
2023/01/05 00:34:54;;;;;;;7.10;2.65;;;21.20;43.80;;;;;;5019376;28;20060;-56
2023/01/05 00:37:25;;;;;;;10.85;3.47;;;21.20;43.80;;;;;;5020542;28;20076;-55
2023/01/05 00:39:52;;;;;;;8.60;2.88;;;21.20;43.80;;;;;;5037492;28;20041;-56
2023/01/05 00:42:20;;;;;;;9.63;3.42;;;21.20;43.80;;;;;;5020586;28;20400;-54
2023/01/05 00:44:46;;;;;;;8.88;3.00;;;21.20;43.80;;;;;;5036411;28;20022;-55
2023/01/05 00:47:12;;;;;;;10.05;2.85;;;21.20;43.80;;;;;;5021711;28;20056;-53
2023/01/05 00:49:38;;;;;;;7.15;2.58;;;21.20;43.80;;;;;;5037715;28;20030;-56
2023/01/05 00:52:05;;;;;;;8.80;2.85;;;21.20;43.80;;;;;;5004324;28;20106;-56
2023/01/05 00:54:31;;;;;;;9.23;2.65;;;21.20;43.80;;;;;;5018832;28;20422;-55
2023/01/05 00:56:57;;;;;;;9.02;2.63;;;21.20;43.80;;;;;;5028881;28;20044;-57
2023/01/05 00:59:23;;;;;;;7.90;2.92;;;21.20;43.80;;;;;;5023042;28;20357;-56
2023/01/05 01:01:52;;;;;;;8.40;2.95;;;21.20;43.90;;;;;;5041106;28;20033;-55
2023/01/05 01:04:18;;;;;;;7.88;2.70;;;21.10;43.80;;;;;;5031194;28;20033;-54
2023/01/05 01:06:45;;;;;;;8.90;2.95;;;21.10;43.80;;;;;;5033235;28;20033;-54
2023/01/05 01:09:13;;;;;;;8.85;2.95;;;21.10;43.80;;;;;;5029661;28;20026;-56
2023/01/05 01:11:39;;;;;;;10.88;3.25;;;21.10;43.80;;;;;;5036759;28;20025;-55
2023/01/05 01:14:06;;;;;;;10.25;3.15;;;21.10;43.80;;;;;;5021575;28;20057;-56
2023/01/05 01:16:33;;;;;;;9.77;3.60;;;21.10;43.80;;;;;;5034712;28;20034;-55
2023/01/05 01:18:59;;;;;;;11.30;3.20;;;21.10;43.80;;;;;;5031881;28;20044;-53
2023/01/05 01:21:25;;;;;;;8.95;3.05;;;21.10;43.90;;;;;;5027108;28;20109;-52
2023/01/05 01:23:51;;;;;;;11.13;2.80;;;21.10;43.90;;;;;;5017961;28;20033;-51
2023/01/05 01:26:17;;;;;;;8.27;2.75;;;21.10;43.90;;;;;;5027478;28;20033;-54
2023/01/05 01:28:46;;;;;;;8.88;3.15;;;21.10;43.90;;;;;;5017869;28;20013;-52
2023/01/05 01:31:12;;;;;;;8.00;2.70;;;21.10;43.90;;;;;;5036705;28;20409;-50
2023/01/05 01:33:39;;;;;;;8.55;3.15;;;21.00;43.90;;;;;;5020164;28;20037;-57
2023/01/05 01:36:06;;;;;;;6.53;2.40;;;21.10;43.90;;;;;;5021542;28;20022;-54
2023/01/05 01:38:32;;;;;;;7.82;2.47;;;21.00;43.90;;;;;;5018910;28;20038;-54
2023/01/05 01:40:58;;;;;;;7.93;2.85;;;21.00;43.90;;;;;;5025983;28;20038;-54
2023/01/05 01:43:46;;;;;;;9.88;2.85;;;21.00;43.90;;;;;;5017773;28;20172;-55
2023/01/05 01:46:17;;;;;;;8.50;2.85;;;21.00;43.90;;;;;;5035403;28;20029;-54
2023/01/05 01:48:53;;;;;;;8.18;3.05;;;21.00;44.00;;;;;;5034883;28;20029;-54
2023/01/05 01:51:34;;;;;;;7.32;2.40;;;21.00;44.00;;;;;;5027391;28;20034;-52
2023/01/05 01:54:07;;;;;;;7.47;2.70;;;21.00;44.10;;;;;;5019778;28;20109;-56
2023/01/05 01:56:38;;;;;;;7.15;2.63;;;21.00;44.10;;;;;;5022247;28;20034;-55
2023/01/05 01:59:04;;;;;;;7.30;2.72;;;21.00;44.10;;;;;;5024492;28;20038;-55
2023/01/05 02:01:31;;;;;;;7.45;2.47;;;21.00;44.10;;;;;;5032501;28;20353;-57
2023/01/05 02:03:58;;;;;;;9.88;3.20;;;21.00;44.20;;;;;;5018637;28;20360;-52
2023/01/05 02:06:24;;;;;;;8.70;2.42;;;20.90;44.10;;;;;;5016695;28;20029;-57
2023/01/05 02:08:51;;;;;;;7.05;2.63;;;21.00;44.20;;;;;;5003654;28;20361;-54
2023/01/05 02:11:42;;;;;;;7.88;2.58;;;20.90;44.20;;;;;;5035722;28;20108;-55
2023/01/05 02:14:37;;;;;;;9.27;2.60;;;20.90;44.20;;;;;;5016856;28;20085;-55
2023/01/05 02:17:22;;;;;;;7.68;2.55;;;20.90;44.20;;;;;;5016955;28;20030;-55
2023/01/05 02:19:48;;;;;;;;;;;20.90;44.20;;;;;;4999409;28;20052;-55
2023/01/05 02:22:38;;;;;;;8.65;2.83;;;20.90;44.20;;;;;;4999852;28;19909;-57
2023/01/05 02:25:24;;;;;;;9.13;3.10;;;20.90;44.20;;;;;;5019264;28;20342;-53
2023/01/05 02:27:50;;;;;;;8.98;3.03;;;20.90;44.30;;;;;;5006891;28;20052;-55
2023/01/05 02:30:38;;;;;;;8.43;2.90;;;20.90;44.30;;;;;;4999795;28;20033;-56
2023/01/05 02:33:37;;;;;;;9.73;3.17;;;20.80;44.30;;;;;;5010342;28;20132;-52
2023/01/05 02:36:23;;;;;;;8.18;2.45;;;20.90;44.30;;;;;;5017402;28;20124;-54
2023/01/05 02:39:02;;;;;;;10.27;3.03;;;20.80;44.30;;;;;;5009374;28;20033;-55
2023/01/05 02:41:30;;;;;;;8.02;2.60;;;20.80;44.30;;;;;;5031203;28;20034;-55
2023/01/05 02:43:59;;;;;;;6.68;2.30;;;20.80;44.30;;;;;;4998951;28;20428;-55
2023/01/05 02:46:25;;;;;;;8.35;2.83;;;20.80;44.40;;;;;;5022694;28;20461;-56
2023/01/05 02:48:55;;;;;;;6.90;2.92;;;20.80;44.30;;;;;;5009519;28;20032;-54
2023/01/05 02:51:27;;;;;;;9.13;2.70;;;20.80;44.40;;;;;;5031053;28;20048;-53
2023/01/05 02:54:00;;;;;;;8.27;2.60;;;20.80;44.40;;;;;;5016117;28;20095;-55
2023/01/05 02:56:38;;;;;;;7.47;2.65;;;20.80;44.40;;;;;;4998794;28;20037;-51
2023/01/05 02:59:34;;;;;;;6.65;2.58;;;20.80;44.40;;;;;;5019277;28;20045;-52
2023/01/05 03:02:03;;;;;;;;;;;20.80;44.40;;;;;;4997399;28;20088;-54
2023/01/05 03:04:38;;;;;;;8.85;2.80;;;20.80;44.50;;;;;;5031594;28;19919;-57
2023/01/05 03:07:11;;;;;;;8.35;2.67;;;20.80;44.50;;;;;;5017379;28;20022;-55
2023/01/05 03:09:39;;;;;;;8.00;2.30;;;20.80;44.50;;;;;;5016195;28;20025;-56
2023/01/05 03:15:32;;;;;;;6.72;2.13;;;20.70;44.40;;;;;;5018817;28;20076;-56
2023/01/05 03:18:16;;;;;;;10.15;3.05;;;20.70;44.40;;;;;;5014004;28;20037;-51
2023/01/05 03:20:50;;;;;;;9.13;2.63;;;20.70;44.50;;;;;;5024127;28;20057;-56
2023/01/05 03:37:46;;;;;;;9.55;3.35;;;20.70;44.60;;;;;;5016848;28;20049;-56
2023/01/05 03:40:18;;;;;;;9.38;2.75;;;20.70;44.70;;;;;;5009919;28;20054;-53
2023/01/05 03:42:45;;;;;;;9.43;2.95;;;20.70;44.70;;;;;;5001016;28;20441;-57
2023/01/05 03:45:14;;;;;;;8.38;2.75;;;20.60;44.60;;;;;;5017818;28;20393;-55
2023/01/05 03:47:41;;;;;;;7.68;3.00;;;20.60;44.70;;;;;;5017089;28;20030;-54
2023/01/05 03:50:07;;;;;;;7.13;2.17;;;20.70;44.70;;;;;;5001141;28;20125;-55
2023/01/05 03:52:33;;;;;;;7.07;2.67;;;20.70;44.70;;;;;;5012609;28;20092;-54
2023/01/05 03:54:59;;;;;;;9.02;2.95;;;20.70;44.70;;;;;;5013538;28;20033;-54
2023/01/05 03:57:25;;;;;;;7.80;2.72;;;20.60;44.70;;;;;;5000450;28;20099;-55
2023/01/05 03:59:52;;;;;;;6.43;2.47;;;20.70;44.70;;;;;;5007544;28;20033;-51
2023/01/05 04:02:19;;;;;;;10.18;2.97;;;20.70;44.70;;;;;;5016526;28;20028;-56
2023/01/05 04:04:45;;;;;;;6.82;2.50;;;20.60;44.70;;;;;;5016540;28;20060;-55
2023/01/05 04:07:12;;;;;;;9.77;2.60;;;20.60;44.70;;;;;;5016370;28;20044;-54
2023/01/05 04:09:39;;;;;;;9.32;2.75;;;20.60;44.70;;;;;;5018648;28;20025;-51
2023/01/05 04:12:05;;;;;;;8.18;2.58;;;20.60;44.70;;;;;;5000472;28;20044;-54
2023/01/05 04:14:36;;;;;;;7.82;2.70;;;20.60;45.30;;;;;;4982570;28;20389;-58
2023/01/05 04:17:02;;;;;;;8.27;2.83;;;20.60;44.70;;;;;;4990432;28;20031;-56
2023/01/05 04:19:28;;;;;;;7.25;2.17;;;20.60;44.70;;;;;;4978142;28;20473;-53
2023/01/05 04:21:55;;;;;;;7.43;2.40;;;20.60;44.70;;;;;;5004493;28;20022;-54
2023/01/05 04:24:22;;;;;;;10.77;2.70;;;20.60;44.70;;;;;;5003783;28;20394;-51
2023/01/05 04:26:48;;;;;;;7.10;2.65;;;20.60;44.70;;;;;;4989301;28;20042;-56
2023/01/05 04:29:16;;;;;;;7.72;2.65;;;20.60;44.70;;;;;;4997858;28;20038;-56
2023/01/05 04:31:44;;;;;;;9.32;2.90;;;20.60;44.70;;;;;;5007039;28;20068;-52
2023/01/05 04:34:11;;;;;;;10.20;3.05;;;20.60;44.70;;;;;;4973961;28;20441;-55
2023/01/05 04:36:39;;;;;;;7.35;2.70;;;20.60;44.70;;;;;;4974866;28;20458;-53
2023/01/05 04:39:05;;;;;;;7.03;2.30;;;20.60;44.80;;;;;;4971548;28;20049;-54
2023/01/05 04:41:32;;;;;;;7.60;2.53;;;20.60;44.70;;;;;;4992206;28;20378;-53
2023/01/05 04:43:58;;;;;;;5.32;2.20;;;20.60;44.80;;;;;;4990363;28;20035;-56
2023/01/05 04:46:24;;;;;;;7.38;2.30;;;20.50;44.70;;;;;;4974327;28;20039;-55
2023/01/05 04:48:53;;;;;;;7.22;2.28;;;20.60;44.80;;;;;;4989890;28;20339;-54
2023/01/05 04:51:20;;;;;;;6.93;2.25;;;20.50;44.70;;;;;;4980175;28;20057;-53
2023/01/05 04:53:46;;;;;;;7.43;2.38;;;20.50;44.70;;;;;;4986214;28;20447;-52
2023/01/05 04:56:16;;;;;;;5.75;2.00;;;20.50;44.70;;;;;;5005053;28;20126;-56
2023/01/05 04:58:43;;;;;;;7.05;2.20;;;20.50;44.70;;;;;;4978313;28;20497;-54
2023/01/05 05:01:10;;;;;;;8.13;2.58;;;20.50;44.80;;;;;;4994250;28;20476;-56
2023/01/05 05:03:37;;;;;;;7.53;2.35;;;20.50;44.80;;;;;;4998704;28;20513;-55
2023/01/05 05:06:07;;;;;;;5.80;2.20;;;20.50;44.80;;;;;;4992660;28;20034;-52
2023/01/05 05:08:33;;;;;;;8.38;2.08;;;20.50;44.80;;;;;;4984160;28;20026;-56
2023/01/05 05:11:00;;;;;;;5.78;2.15;;;20.50;44.80;;;;;;4994732;28;20121;-53
2023/01/05 05:13:30;;;;;;;8.52;2.65;;;20.50;44.90;;;;;;4998402;28;20049;-55
2023/01/05 05:15:56;;;;;;;8.65;2.47;;;20.50;44.90;;;;;;5001970;28;20026;-54
2023/01/05 05:18:23;;;;;;;5.38;2.42;;;20.50;44.90;;;;;;5028286;28;20128;-55
2023/01/05 05:20:51;;;;;;;8.50;2.40;;;20.50;44.90;;;;;;5016221;28;20022;-52
2023/01/05 05:23:18;;;;;;;7.85;2.35;;;20.50;45.00;;;;;;5027855;28;20457;-55
2023/01/05 05:25:44;;;;;;;6.55;2.17;;;20.50;45.00;;;;;;5011672;28;20034;-56
2023/01/05 05:28:10;;;;;;;7.75;2.83;;;20.50;45.00;;;;;;5000991;28;20133;-55
2023/01/05 05:30:39;;;;;;;7.38;2.15;;;20.50;45.00;;;;;;5017216;28;20037;-57
2023/01/05 05:33:05;;;;;;;6.88;2.38;;;20.50;45.00;;;;;;5012602;28;20045;-54
2023/01/05 05:35:31;;;;;;;6.22;2.47;;;20.50;45.10;;;;;;5002045;28;20030;-54
2023/01/05 05:37:56;;;;;;;7.97;2.53;;;20.50;45.10;;;;;;5009640;28;20067;-56
2023/01/05 05:40:23;;;;;;;8.55;3.00;;;20.40;45.00;;;;;;5006489;28;20053;-54
2023/01/05 05:42:51;;;;;;;6.88;2.17;;;20.40;45.10;;;;;;5015272;28;20100;-54
2023/01/05 05:45:17;;;;;;;8.15;2.50;;;20.50;45.10;;;;;;5017291;28;20036;-54
2023/01/05 05:47:43;;;;;;;9.27;3.08;;;20.40;45.10;;;;;;5016631;28;20346;-55
2023/01/05 05:50:09;;;;;;;8.90;2.35;;;20.40;45.10;;;;;;5001727;28;20097;-54
2023/01/05 05:52:35;;;;;;;7.75;2.50;;;20.40;45.10;;;;;;4999866;28;20442;-56
2023/01/05 05:55:01;;;;;;;6.13;1.90;;;20.40;45.10;;;;;;4997846;28;20062;-57
2023/01/05 05:57:27;;;;;;;8.25;2.65;;;20.40;45.80;;;;;;4998758;28;20105;-54
2023/01/05 05:59:52;;;;;;;7.50;2.20;;;20.40;45.20;;;;;;5002766;28;20026;-56
2023/01/05 06:02:18;;;;;;;6.07;2.10;;;20.40;45.20;;;;;;5007575;28;20121;-56
2023/01/05 06:04:44;;;;;;;7.85;2.70;;;20.40;45.20;;;;;;5016847;28;20503;-55
2023/01/05 06:07:11;;;;;;;9.43;2.85;;;20.40;45.20;;;;;;5014781;28;20042;-54
2023/01/05 06:09:36;;;;;;;7.55;2.35;;;20.40;45.20;;;;;;5000096;28;20038;-54
2023/01/05 06:12:02;;;;;;;6.55;2.47;;;20.40;45.20;;;;;;5008573;28;20026;-56
2023/01/05 06:14:28;;;;;;;6.75;2.00;;;20.40;45.30;;;;;;5014430;28;20128;-55
2023/01/05 06:16:54;;;;;;;9.15;2.53;;;20.40;45.30;;;;;;5019357;28;20130;-57
2023/01/05 06:19:20;;;;;;;9.00;2.60;;;20.40;45.30;;;;;;5018692;28;20036;-55
2023/01/05 06:21:46;;;;;;;7.47;2.30;;;20.40;45.30;;;;;;5019760;28;20026;-54
2023/01/05 06:24:12;;;;;;;7.30;2.53;;;20.40;45.30;;;;;;5036707;28;20026;-53
2023/01/05 06:26:37;;;;;;;7.47;2.25;;;20.40;45.30;;;;;;5012278;28;20431;-53
2023/01/05 06:29:03;;;;;;;6.45;2.13;;;20.30;45.30;;;;;;5032045;28;20033;-53
2023/01/05 06:31:29;;;;;;;8.10;2.40;;;20.40;45.40;;;;;;5035569;28;20361;-51
2023/01/05 06:33:55;;;;;;;8.40;2.75;;;20.40;45.40;;;;;;5033024;28;20077;-57
2023/01/05 06:36:21;;;;;;;7.82;2.60;;;20.40;45.40;;;;;;5031682;28;20029;-53
2023/01/05 06:38:47;;;;;;;9.35;2.90;;;20.40;45.40;;;;;;5018373;28;20355;-56
2023/01/05 06:41:13;;;;;;;7.55;2.65;;;20.30;45.40;;;;;;5015935;28;20395;-56
2023/01/05 06:43:39;;;;;;;8.50;2.38;;;20.40;45.40;;;;;;5016550;28;20072;-53
2023/01/05 06:46:04;;;;;;;9.85;2.50;;;20.30;45.40;;;;;;5033611;28;20053;-56
2023/01/05 06:48:30;;;;;;;6.13;2.00;;;20.40;45.50;;;;;;5022050;28;20108;-55
2023/01/05 06:50:56;;;;;;;8.50;2.72;;;20.30;45.50;;;;;;5034313;28;20037;-55
2023/01/05 06:53:24;;;;;;;9.93;2.75;;;20.30;45.50;;;;;;5039435;28;20421;-55
2023/01/05 06:55:50;;;;;;;7.85;2.75;;;20.30;45.50;;;;;;5035535;28;20060;-57
2023/01/05 06:58:16;;;;;;;7.55;2.22;;;20.30;45.50;;;;;;5028208;28;20081;-58
2023/01/05 07:00:42;;;;;;;7.00;2.20;;;20.30;45.50;;;;;;5018351;28;20031;-56
2023/01/05 07:03:12;;;;;;;6.97;2.33;;;20.30;45.50;;;;;;5031277;28;20045;-57
2023/01/05 07:05:39;;;;;;;8.63;2.90;;;20.30;45.60;;;;;;5031861;28;20128;-55
2023/01/05 07:08:04;;;;;;;8.45;2.75;;;20.30;45.60;;;;;;5027633;28;20449;-57
2023/01/05 07:10:30;;;;;;;8.20;2.45;;;20.30;45.60;;;;;;5015785;28;20045;-56
2023/01/05 07:12:58;;;;;;;8.68;2.63;;;20.30;45.60;;;;;;5023633;28;20049;-57
2023/01/05 07:15:25;;;;;;;7.82;2.45;;;20.30;45.60;;;;;;5017823;28;20037;-56
2023/01/05 07:17:51;;;;;;;10.55;3.28;;;20.30;45.70;;;;;;5035257;28;20038;-56
2023/01/05 07:20:18;;;;;;;8.30;2.90;;;20.30;45.70;;;;;;5017308;28;20065;-56
2023/01/05 07:22:43;;;;;;;9.38;2.40;;;20.30;45.80;;;;;;5034344;28;20029;-56
2023/01/05 07:25:10;;;;;;;6.78;2.33;;;20.30;45.80;;;;;;5035080;28;20034;-52
2023/01/05 07:27:36;;;;;;;6.78;2.72;;;20.30;45.90;;;;;;5035894;28;20033;-52
2023/01/05 07:30:02;;;;;;;8.68;2.42;;;20.30;45.90;;;;;;5007638;28;20096;-56
2023/01/05 07:32:28;;;;;;;7.60;2.40;;;20.30;45.90;;;;;;5025659;28;20048;-55
2023/01/05 07:34:54;;;;;;;7.07;2.40;;;20.30;45.90;;;;;;5024761;28;20108;-57
2023/01/05 07:37:28;;;;;;;11.27;3.22;;;20.30;45.90;;;;;;5055434;28;20047;-54
2023/01/05 07:39:54;;;;;;;11.80;2.97;;;20.30;45.90;;;;;;5012260;28;20087;-56
2023/01/05 07:42:20;;;;;;;9.32;2.90;;;20.20;45.80;;;;;;5018160;28;20041;-53
2023/01/05 07:44:47;;;;;;;7.85;2.70;;;20.30;45.90;;;;;;5017536;28;20029;-57
2023/01/05 07:47:13;;;;;;;7.95;2.65;;;20.30;45.90;;;;;;5035179;28;20090;-56
2023/01/05 07:49:39;;;;;;;7.68;2.78;;;20.30;45.90;;;;;;5020277;28;20076;-58
2023/01/05 07:52:05;;;;;;;9.55;3.33;;;20.30;45.90;;;;;;5015235;28;20500;-58
2023/01/05 07:54:30;;;;;;;7.57;2.35;;;20.30;45.90;;;;;;5029485;28;20025;-55
2023/01/05 07:56:56;;;;;;;9.77;2.78;;;20.30;45.90;;;;;;5034032;28;20460;-52
2023/01/05 07:59:22;;;;;;;8.70;3.08;;;20.30;45.90;;;;;;5016041;28;20075;-55
2023/01/05 08:01:48;;;;;;;7.07;2.55;;;20.30;45.90;;;;;;5034718;28;20056;-52
2023/01/05 08:04:14;;;;;;;7.00;2.40;;;20.30;45.90;;;;;;5033044;28;20457;-56
2023/01/05 08:06:40;;;;;;;7.13;2.38;;;20.30;45.90;;;;;;5034862;28;20033;-55
2023/01/05 08:11:49;;;;;;;8.43;2.40;;;20.40;45.90;;;;;;5035149;28;20033;-55
2023/01/05 08:14:15;;;;;;;7.70;2.53;;;20.40;45.90;;;;;;5034671;28;20064;-53
2023/01/05 08:16:41;;;;;;;7.25;2.45;;;20.40;45.90;;;;;;5034452;28;20115;-57
2023/01/05 08:19:09;;;;;;;7.20;2.13;;;20.50;46.00;;;;;;5017147;28;20045;-54
2023/01/05 08:21:35;;;;;;;8.07;2.88;;;20.50;45.90;;;;;;5034629;28;20026;-57
2023/01/05 08:24:01;;;;;;;7.88;2.35;;;20.60;45.80;;;;;;5034637;28;20460;-53
2023/01/05 08:26:27;;;;;;;6.90;2.42;;;20.60;45.70;;;;;;5008511;28;20461;-57
2023/01/05 08:28:52;;;;;;;7.72;2.70;;;20.70;45.60;;;;;;5015338;28;20034;-56
2023/01/05 08:31:25;;;;;;;7.10;2.53;;;20.70;45.50;;;;;;5014744;28;20022;-55
2023/01/05 08:33:54;;;;;;;8.18;2.53;;;20.80;45.40;;;;;;5025715;28;20369;-54
2023/01/05 08:36:20;;;;;;;7.43;2.17;;;20.90;45.40;;;;;;5033723;28;20025;-58
2023/01/05 08:38:47;;;;;;;8.38;2.50;;;21.00;45.30;;;;;;5016504;28;20068;-56
2023/01/05 08:41:18;;;;;;;7.50;2.70;;;21.00;45.20;;;;;;5027404;28;20418;-57
2023/01/05 08:43:47;;;;;;;8.05;2.33;;;21.10;45.10;;;;;;5034516;28;20034;-59
2023/01/05 08:46:13;;;;;;;7.47;2.42;;;21.20;45.10;;;;;;5037820;28;20412;-55
2023/01/05 08:48:39;;;;;;;8.30;2.58;;;21.20;44.90;;;;;;5038303;28;20033;-55
2023/01/05 08:51:06;;;;;;;8.50;2.58;;;21.30;44.90;;;;;;5036651;28;20021;-56
2023/01/05 08:53:33;;;;;;;7.70;2.65;;;21.30;44.70;;;;;;5036785;28;20041;-57
2023/01/05 08:56:00;;;;;;;7.90;2.47;;;21.40;44.60;;;;;;5017171;28;20063;-57
2023/01/05 08:58:26;;;;;;;8.02;2.17;;;21.50;44.60;;;;;;5018864;28;20033;-58
2023/01/05 09:00:52;;;;;;;7.03;2.15;;;21.50;44.50;;;;;;5019215;28;20021;-54
2023/01/05 09:03:19;;;;;;;8.95;2.95;;;21.50;44.30;;;;;;5018590;28;20121;-56
2023/01/05 09:05:45;;;;;;;6.80;2.25;;;21.60;44.30;;;;;;5036608;28;20045;-54
2023/01/05 09:08:11;;;;;;;6.82;2.45;;;21.60;44.20;;;;;;5037323;28;20026;-52
2023/01/05 09:10:36;;;;;;;7.82;2.42;;;21.70;44.10;;;;;;5037163;28;20099;-56
2023/01/05 09:13:02;;;;;;;5.72;2.45;;;21.70;44.00;;;;;;5036008;28;20092;-57
2023/01/05 09:15:28;;;;;;;8.68;2.42;;;21.80;44.00;;;;;;5019181;28;20036;-53
2023/01/05 09:17:57;;;;;;;6.07;2.28;;;21.80;43.90;;;;;;5036305;28;20069;-59
2023/01/05 09:20:23;;;;;;;12.05;3.05;;;21.90;43.80;;;;;;5036157;28;20026;-57
2023/01/05 09:22:49;;;;;;;7.60;2.25;;;21.90;43.70;;;;;;5037265;28;20095;-57
2023/01/05 09:25:14;;;;;;;7.45;2.17;;;21.90;43.60;;;;;;5036004;28;20939;-59
2023/01/05 09:27:41;;;;;;;7.13;2.42;;;22.00;43.60;;;;;;5036334;28;20464;-57
2023/01/05 09:30:08;;;;;;;6.60;2.22;;;22.00;43.50;;;;;;5035751;28;20026;-55
2023/01/05 09:32:36;;;;;;;8.20;2.75;;;22.10;43.50;;;;;;5018913;28;20442;-56
2023/01/05 09:35:02;;;;;;;7.53;2.00;;;22.10;43.40;;;;;;5033889;28;20030;-55
2023/01/05 09:37:28;;;;;;;6.57;2.25;;;22.10;43.30;;;;;;5031056;28;20037;-56
2023/01/05 09:39:55;;;;;;;5.65;2.00;;;22.10;43.20;;;;;;5026641;28;20087;-57
2023/01/05 09:42:26;;;;;;;6.85;2.53;;;22.20;43.20;;;;;;5036017;28;20025;-55
2023/01/05 09:44:59;;;;;;;7.80;2.50;;;22.20;43.20;;;;;;5018582;28;20048;-56
2023/01/05 09:47:45;;;;;;;9.55;2.78;;;22.20;43.10;;;;;;5034822;28;20025;-59
2023/01/05 09:50:20;;;;;;;6.85;2.20;;;22.20;43.10;;;;;;5036426;28;20040;-56
2023/01/05 09:52:48;;;;;;;5.55;2.10;;;22.30;43.10;;;;;;5032879;28;20472;-57
2023/01/05 09:55:19;;;;;;;5.80;2.55;;;22.20;43.00;;;;;;5033119;28;20030;-54
2023/01/05 09:58:18;;;;;;;7.72;2.05;;;22.30;43.10;;;;;;5032697;28;20037;-56
2023/01/05 10:00:56;;;;;;;6.82;2.10;;;22.30;43.00;;;;;;5025034;28;20045;-54
2023/01/05 10:03:24;;;;;;;6.15;1.85;;;22.30;43.00;;;;;;5010372;28;20018;-58
2023/01/05 10:05:50;;;;;;;6.35;2.05;;;22.30;43.00;;;;;;5023221;28;20397;-52
2023/01/05 10:08:19;;;;;;;7.32;2.35;;;22.30;43.00;;;;;;5019367;28;20080;-57
2023/01/05 10:14:00;;;;;;;6.53;2.00;;;22.30;43.00;;;;;;5033766;28;20037;-53
2023/01/05 10:16:27;;;;;;;6.65;2.03;;;22.30;43.10;;;;;;5033608;28;20025;-55
2023/01/05 10:18:54;;;;;;;6.10;1.75;;;22.30;43.10;;;;;;5035241;28;20037;-56
2023/01/05 10:21:37;;;;;;;5.57;1.75;;;22.30;43.10;;;;;;5034803;28;20079;-55
2023/01/05 10:24:21;;;;;;;4.38;1.90;;;22.30;43.00;;;;;;5016663;28;20464;-58
2023/01/05 10:26:57;;;;;;;7.18;3.05;;;22.30;43.60;;;;;;5034728;28;20029;-57
2023/01/05 10:29:45;;;;;;;6.63;2.20;;;22.30;43.00;;;;;;5032006;28;20071;-58
2023/01/05 10:32:30;;;;;;;7.30;1.95;;;22.30;43.00;;;;;;5014847;28;20029;-57
2023/01/05 10:35:06;;;;;;;6.70;2.50;;;22.30;42.90;;;;;;5032872;28;20052;-56
2023/01/05 10:37:50;;;;;;;7.28;2.13;;;22.30;42.90;;;;;;5034303;28;20369;-54
2023/01/05 10:40:26;;;;;;;6.47;2.20;;;22.30;42.80;;;;;;5034995;28;20032;-57
2023/01/05 10:43:18;;;;;;;8.20;2.47;;;22.30;42.80;;;;;;5016885;28;20354;-59
2023/01/05 10:45:44;;;;;;;8.23;2.55;;;22.20;42.70;;;;;;5006443;28;20037;-55
2023/01/05 10:48:13;;;;;;;6.90;2.50;;;22.30;42.70;;;;;;5034547;28;20022;-58
2023/01/05 10:50:39;;;;;;;6.60;2.30;;;22.30;42.70;;;;;;5034132;28;20045;-55
2023/01/05 10:53:22;;;;;;;5.53;2.13;;;22.30;42.70;;;;;;5031922;28;20022;-52
2023/01/05 10:56:11;;;;;;;7.63;2.40;;;22.30;42.60;;;;;;5034341;28;20029;-55
2023/01/05 10:58:40;;;;;;;7.40;2.45;;;22.30;42.60;;;;;;5032956;28;20056;-56
2023/01/05 11:01:22;;;;;;;9.07;2.70;;;22.30;42.60;;;;;;5033908;28;20025;-59
2023/01/05 11:03:50;;;;;;;7.00;2.47;;;22.20;42.60;;;;;;5034362;28;20065;-57
2023/01/05 11:06:29;;;;;;;7.00;2.13;;;22.30;43.30;;;;;;5031703;28;20052;-52
2023/01/05 11:09:15;;;;;;;6.03;2.00;;;22.20;42.60;;;;;;5032983;28;20029;-52
2023/01/05 11:11:41;;;;;;;7.75;2.42;;;22.20;42.50;;;;;;5032316;28;20044;-54
2023/01/05 11:14:15;;;;;;;5.97;2.30;;;22.20;42.60;;;;;;5033165;28;20103;-56
2023/01/05 11:16:48;;;;;;;6.33;2.40;;;22.20;42.60;;;;;;5033558;28;20472;-55
2023/01/05 11:19:17;;;;;;;6.97;2.47;;;22.20;42.60;;;;;;5034095;28;20318;-57
2023/01/05 11:21:44;;;;;;;5.80;2.40;;;22.20;42.60;;;;;;5031905;28;20025;-60
2023/01/05 11:24:22;;;;;;;8.63;2.58;;;22.20;42.60;;;;;;5029906;28;20465;-55
2023/01/05 11:26:51;;;;;;;7.88;2.38;;;22.20;42.60;;;;;;5024691;28;20529;-55
2023/01/05 11:29:18;;;;;;;6.53;2.13;;;22.20;42.70;;;;;;5027804;28;20026;-55
2023/01/05 11:32:04;;;;;;;8.70;2.95;;;22.20;42.70;;;;;;5032612;28;20033;-57
2023/01/05 11:34:47;;;;;;;6.53;2.10;;;22.20;42.70;;;;;;5024227;28;20465;-57
2023/01/05 11:37:29;;;;;;;7.13;2.67;;;22.20;42.80;;;;;;5023605;28;20033;-56
2023/01/05 11:40:05;;;;;;;6.28;2.13;;;22.20;42.80;;;;;;5033847;28;20395;-53
2023/01/05 11:42:35;;;;;;;7.65;2.08;;;22.20;42.80;;;;;;5030811;28;20436;-52
2023/01/05 11:45:05;;;;;;;9.43;2.75;;;22.20;42.90;;;;;;5031995;28;20044;-55
2023/01/05 11:47:42;;;;;;;8.10;2.80;;;22.20;42.90;;;;;;5032204;28;20437;-55
2023/01/05 11:50:14;;;;;;;6.25;2.35;;;22.20;42.90;;;;;;5014555;28;20026;-57
2023/01/05 11:52:42;;;;;;;5.75;2.30;;;22.20;42.90;;;;;;5027511;28;20029;-56
2023/01/05 11:55:22;;;;;;;8.20;2.60;;;22.20;43.00;;;;;;5033386;28;20040;-57
2023/01/05 11:57:52;;;;;;;7.25;2.42;;;22.20;43.00;;;;;;5011540;28;20433;-56
2023/01/05 12:00:24;;;;;;;7.90;2.28;;;22.20;43.00;;;;;;5015301;28;20159;-57
2023/01/05 12:03:21;;;;;;;8.02;2.85;;;22.20;43.00;;;;;;5030361;28;20087;-54
2023/01/05 12:05:59;;;;;;;6.32;2.13;;;22.20;43.00;;;;;;4996103;28;20567;-57
2023/01/05 12:08:43;;;;;;;6.60;2.58;;;22.20;43.10;;;;;;5027432;28;20029;-56
2023/01/05 12:11:18;;;;;;;7.43;2.20;;;22.20;43.00;;;;;;5034115;28;20079;-56
2023/01/05 12:13:56;;;;;;;;;;;22.20;43.10;;;;;;5023038;28;20346;-59
2023/01/05 12:16:44;;;;;;;9.95;2.75;;;22.20;43.10;;;;;;5005573;28;19994;-60
2023/01/05 12:19:47;;;;;;;6.32;2.25;;;22.20;43.30;;;;;;5014199;28;20444;-61
2023/01/05 12:22:35;;;;;;;9.15;3.05;;;22.20;43.40;;;;;;5019973;28;20041;-56
2023/01/05 12:25:25;;;;;;;7.07;2.63;;;22.20;43.40;;;;;;5027790;28;20037;-56
2023/01/05 12:28:10;;;;;;;9.93;3.28;;;22.30;43.40;;;;;;5030559;28;20468;-59
2023/01/05 12:30:46;;;;;;;8.00;2.60;;;22.40;43.40;;;;;;5037665;28;20040;-58
2023/01/05 12:33:41;;;;;;;6.30;2.75;;;22.40;43.30;;;;;;5021490;28;20033;-56
2023/01/05 12:36:10;;;;;;;8.40;2.53;;;22.50;43.20;;;;;;5037607;28;20021;-58
2023/01/05 12:38:44;;;;;;;9.32;2.28;;;22.60;43.10;;;;;;5036690;28;20060;-59
2023/01/05 12:41:30;;;;;;;;;;;22.80;43.10;;;;;;5039264;28;20061;-58
2023/01/05 12:44:33;;;;;;;6.30;1.98;;;22.80;43.00;;;;;;5037985;28;19909;-59
2023/01/05 12:47:14;;;;;;;7.55;2.60;;;22.90;42.90;;;;;;5038425;28;20404;-56
2023/01/05 12:49:49;;;;;;;7.22;2.40;;;23.10;42.90;;;;;;5038566;28;20025;-59
2023/01/05 12:52:15;;;;;;;5.05;2.10;;;23.10;42.80;;;;;;5014260;28;20037;-58
2023/01/05 12:54:45;;;;;;;7.97;2.65;;;23.20;42.80;;;;;;5033483;28;20040;-58
2023/01/05 12:57:22;;;;;;;7.03;2.72;;;23.30;42.70;;;;;;5030010;28;20134;-61
2023/01/05 12:59:53;;;;;;;5.10;2.45;;;23.30;42.50;;;;;;5028456;28;20077;-59
2023/01/05 13:02:31;;;;;;;6.90;2.55;;;23.30;42.30;;;;;;5037309;28;20033;-58
2023/01/05 13:05:20;;;;;;;7.72;2.65;;;23.40;42.30;;;;;;5039124;28;20402;-59
2023/01/05 13:08:01;;;;;;;7.28;2.50;;;23.40;42.20;;;;;;5037274;28;20341;-57
2023/01/05 13:10:44;;;;;;;7.05;2.30;;;23.50;42.10;;;;;;5036811;28;20397;-60
2023/01/05 13:13:19;;;;;;;6.97;2.30;;;23.60;42.00;;;;;;5025953;28;20042;-59
2023/01/05 13:16:01;;;;;;;6.80;2.33;;;23.50;41.80;;;;;;5022675;28;20029;-58
2023/01/05 13:18:29;;;;;;;7.93;2.53;;;23.60;41.70;;;;;;5037418;28;20037;-55
2023/01/05 13:21:01;;;;;;;6.28;1.95;;;23.60;41.60;;;;;;5038410;28;20465;-54
2023/01/05 13:23:35;;;;;;;7.10;2.35;;;23.70;41.50;;;;;;5037995;28;20046;-59
2023/01/05 13:26:04;;;;;;;;;;;23.70;41.50;;;;;;5037932;28;20017;-59
2023/01/05 13:28:30;;;;;;;8.52;2.10;;;23.70;41.40;;;;;;5039315;28;20396;-60
2023/01/05 13:31:12;;;;;;;8.30;2.53;;;23.80;41.30;;;;;;5035658;28;20029;-59
2023/01/05 13:33:47;;;;;;;7.25;2.40;;;23.80;41.10;;;;;;5022858;28;20053;-62
2023/01/05 13:36:31;;;;;;;5.75;2.33;;;23.80;41.00;;;;;;5040584;28;20028;-60
2023/01/05 13:39:26;;;;;;;8.68;2.35;;;23.90;41.00;;;;;;5042077;28;20044;-58
2023/01/05 13:42:03;;;;;;;9.10;2.25;;;23.90;41.00;;;;;;5034087;28;20449;-62